Time;durP1;ratioP1;P1;durP2;ratioP2;P2;SDS_P1;SDS_P2;PMS_P1;PMS_P2;Temp;Humidity;BMP_temperature;BMP_pressure;BME280_temperature;BME280_humidity;BME280_pressure;Samples;Min_cycle;Max_cycle;Signal;HPM_P1;HPM_P2
2022/09/04 00:02:23;;;;;;;1.30;0.53;;;;;;;;;;5115796;28;20024;-73
2022/09/04 00:04:56;;;;;;;0.98;0.50;;;;;;;;;;5115221;28;20065;-73
2022/09/04 00:07:28;;;;;;;0.17;0.10;;;;;;;;;;5109743;28;20477;-75
2022/09/04 00:10:10;;;;;;;0.33;0.20;;;;;;;;;;5108382;28;20023;-74
2022/09/04 00:12:47;;;;;;;0.40;0.40;;;;;;;;;;5109541;28;20035;-72
2022/09/04 00:15:18;;;;;;;1.50;0.33;;;;;;;;;;5089617;28;20032;-74
2022/09/04 00:17:49;;;;;;;0.83;0.60;;;;;;;;;;5094920;28;20409;-74
2022/09/04 00:20:34;;;;;;;5.80;0.63;;;;;;;;;;5110820;28;20019;-72
2022/09/04 00:23:05;;;;;;;0.57;0.45;;;;;;;;;;5113522;28;20070;-71
2022/09/04 00:25:51;;;;;;;0.10;0.10;;;;;;;;;;5115247;28;20024;-73
2022/09/04 00:28:36;;;;;;;0.40;0.20;;;;;;;;;;5112899;28;20114;-73
2022/09/04 00:31:06;;;;;;;0.63;0.45;;;;;;;;;;5109284;28;20102;-72
2022/09/04 00:33:37;;;;;;;0.20;0.20;;;;;;;;;;5109291;28;20089;-72
2022/09/04 00:36:04;;;;;;;2.13;0.50;;;;;;;;;;5109382;28;20070;-74
2022/09/04 00:38:30;;;;;;;0.90;0.60;;;;;;;;;;5112089;28;20080;-72
2022/09/04 00:41:17;;;;;;;1.13;0.43;;;;;;;;;;5114818;28;20342;-74
2022/09/04 00:44:02;;;;;;;0.10;0.10;;;;;;;;;;5091817;28;20036;-72
2022/09/04 00:46:38;;;;;;;0.13;0.10;;;;;;;;;;5114560;28;20066;-72
2022/09/04 00:49:23;;;;;;;0.87;0.57;;;;;;;;;;5114615;28;20047;-73
2022/09/04 00:51:53;;;;;;;0.00;0.00;;;;;;;;;;5109444;28;20023;-73
2022/09/04 00:54:40;;;;;;;0.10;0.10;;;;;;;;;;5109553;28;20031;-73
2022/09/04 00:57:12;;;;;;;1.13;0.33;;;;;;;;;;5108705;28;20093;-73
2022/09/04 00:59:57;;;;;;;0.10;0.10;;;;;;;;;;5106064;28;20037;-73
2022/09/04 01:02:30;;;;;;;0.40;0.25;;;;;;;;;;5113664;28;20032;-74
2022/09/04 01:04:59;;;;;;;0.30;0.20;;;;;;;;;;5114169;28;20051;-72
2022/09/04 01:07:49;;;;;;;0.40;0.30;;;;;;;;;;5113602;28;20112;-73
2022/09/04 01:10:23;;;;;;;0.20;0.20;;;;;;;;;;5114293;28;20072;-72
2022/09/04 01:13:05;;;;;;;0.15;0.15;;;;;;;;;;5111885;28;20347;-74
2022/09/04 01:15:41;;;;;;;0.10;0.10;;;;;;;;;;5108953;28;20076;-74
2022/09/04 01:18:12;;;;;;;0.40;0.30;;;;;;;;;;5107196;28;20640;-74
2022/09/04 01:20:47;;;;;;;0.70;0.50;;;;;;;;;;5108112;28;20043;-73
2022/09/04 01:23:16;;;;;;;0.83;0.60;;;;;;;;;;5110811;28;20043;-72
2022/09/04 01:26:01;;;;;;;1.23;0.70;;;;;;;;;;5113529;28;20024;-72
2022/09/04 01:29:00;;;;;;;11.13;1.02;;;;;;;;;;5113339;28;20023;-72
2022/09/04 01:31:39;;;;;;;2.03;1.07;;;;;;;;;;5066074;28;20031;-73
2022/09/04 01:34:09;;;;;;;0.53;0.47;;;;;;;;;;5112090;28;20122;-73
2022/09/04 01:36:39;;;;;;;0.57;0.47;;;;;;;;;;5107509;28;20089;-73
2022/09/04 01:39:06;;;;;;;3.33;0.90;;;;;;;;;;5104595;27;20012;-74
2022/09/04 01:41:32;;;;;;;0.60;0.57;;;;;;;;;;5106431;28;20031;-74
2022/09/04 01:43:59;;;;;;;0.90;0.60;;;;;;;;;;5107754;27;20533;-72
2022/09/04 01:46:35;;;;;;;0.60;0.47;;;;;;;;;;5110983;28;20466;-72
2022/09/04 01:49:14;;;;;;;1.33;0.93;;;;;;;;;;5111713;28;20032;-74
2022/09/04 01:51:56;;;;;;;0.37;0.30;;;;;;;;;;5098051;28;20061;-73
2022/09/04 01:54:22;;;;;;;0.33;0.33;;;;;;;;;;5113391;28;20028;-74
2022/09/04 01:57:06;;;;;;;0.70;0.50;;;;;;;;;;5112750;28;20023;-74
2022/09/04 01:59:41;;;;;;;0.77;0.77;;;;;;;;;;5108273;28;20500;-74
2022/09/04 02:02:20;;;;;;;1.40;0.90;;;;;;;;;;5108277;28;20030;-74
2022/09/04 02:05:09;;;;;;;0.40;0.40;;;;;;;;;;5107718;28;20031;-74
2022/09/04 02:07:51;;;;;;;1.10;0.80;;;;;;;;;;5110128;28;20653;-74
2022/09/04 02:10:27;;;;;;;0.60;0.50;;;;;;;;;;5113305;28;20024;-73
2022/09/04 02:13:08;;;;;;;1.40;0.70;;;;;;;;;;5113310;28;20015;-75
2022/09/04 02:15:43;;;;;;;1.33;0.80;;;;;;;;;;5112631;28;20042;-74
2022/09/04 02:18:23;;;;;;;1.27;0.93;;;;;;;;;;5111860;28;20483;-76
2022/09/04 02:21:02;;;;;;;0.93;0.67;;;;;;;;;;5107660;28;20031;-75
2022/09/04 02:23:34;;;;;;;0.30;0.30;;;;;;;;;;5107313;28;20019;-76
2022/09/04 02:26:11;;;;;;;0.60;0.60;;;;;;;;;;5107168;28;20097;-75
2022/09/04 02:28:51;;;;;;;1.63;0.90;;;;;;;;;;5107517;28;20028;-76
2022/09/04 02:31:21;;;;;;;3.27;1.40;;;;;;;;;;5111949;28;20031;-75
2022/09/04 02:34:01;;;;;;;2.73;1.17;;;;;;;;;;5112233;28;20031;-75
2022/09/04 02:36:30;;;;;;;1.10;0.80;;;;;;;;;;5111154;28;20027;-76
2022/09/04 02:39:02;;;;;;;0.60;0.47;;;;;;;;;;5112322;28;20058;-76
2022/09/04 02:41:41;;;;;;;2.07;0.87;;;;;;;;;;5111239;28;20020;-76
2022/09/04 02:44:15;;;;;;;1.23;0.80;;;;;;;;;;5106656;28;20727;-76
2022/09/04 02:46:53;;;;;;;1.13;0.83;;;;;;;;;;5107173;28;20016;-76
2022/09/04 02:49:29;;;;;;;0.90;0.70;;;;;;;;;;5107001;28;20144;-76
2022/09/04 02:52:05;;;;;;;2.90;1.23;;;;;;;;;;5108260;28;20063;-77
2022/09/04 02:54:57;;;;;;;1.27;0.93;;;;;;;;;;5112312;28;20062;-77
2022/09/04 02:57:27;;;;;;;1.17;1.07;;;;;;;;;;5112334;28;20016;-75
2022/09/04 03:00:12;;;;;;;4.83;1.20;;;;;;;;;;5112414;28;20373;-76
2022/09/04 03:02:38;;;;;;;;;;;;;;;;;;5112540;28;20027;-76
2022/09/04 03:05:17;;;;;;;1.30;0.83;;;;;;;;;;5108874;28;20378;-75
2022/09/04 03:07:48;;;;;;;1.60;0.90;;;;;;;;;;5107079;28;20020;-75
2022/09/04 03:10:19;;;;;;;0.93;0.67;;;;;;;;;;5107055;28;20019;-77
2022/09/04 03:12:46;;;;;;;1.23;0.70;;;;;;;;;;5107230;28;20209;-75
2022/09/04 03:15:26;;;;;;;2.60;1.17;;;;;;;;;;5110309;28;20040;-75
2022/09/04 03:18:00;;;;;;;2.00;0.57;;;;;;;;;;5112523;28;20055;-77
2022/09/04 03:20:28;;;;;;;0.38;0.28;;;;;;;;;;5112384;28;20023;-75
2022/09/04 03:22:58;;;;;;;1.13;0.90;;;;;;;;;;5112288;28;20618;-75
2022/09/04 03:25:43;;;;;;;0.83;0.63;;;;;;;;;;5112102;28;20024;-76
2022/09/04 03:28:16;;;;;;;7.68;1.58;;;;;;;;;;5107134;28;20077;-75
2022/09/04 03:30:43;;;;;;;1.30;0.80;;;;;;;;;;5106965;28;20047;-75
2022/09/04 03:33:11;;;;;;;2.93;1.03;;;;;;;;;;5107115;28;20100;-75
2022/09/04 03:35:51;;;;;;;1.20;0.73;;;;;;;;;;5106572;28;20436;-75
2022/09/04 03:38:36;;;;;;;0.90;0.83;;;;;;;;;;5111242;28;20034;-75
2022/09/04 03:41:10;;;;;;;1.35;1.10;;;;;;;;;;5112112;28;20020;-75
2022/09/04 03:43:42;;;;;;;1.10;0.97;;;;;;;;;;5112304;28;20019;-74
2022/09/04 03:46:15;;;;;;;0.70;0.70;;;;;;;;;;5112332;28;20025;-74
2022/09/04 03:48:50;;;;;;;2.23;1.43;;;;;;;;;;5110316;28;20398;-74
2022/09/04 03:51:19;;;;;;;1.20;1.03;;;;;;;;;;5106667;28;20084;-74
2022/09/04 03:54:04;;;;;;;1.67;1.37;;;;;;;;;;5106432;28;20038;-74
2022/09/04 03:56:31;;;;;;;1.10;0.90;;;;;;;;;;5106856;28;20084;-74
2022/09/04 03:58:57;;;;;;;0.93;0.80;;;;;;;;;;5111619;28;20069;-74
2022/09/04 04:01:27;;;;;;;1.03;0.87;;;;;;;;;;5115130;28;20031;-73
2022/09/04 04:04:00;;;;;;;0.83;0.73;;;;;;;;;;5115850;28;20456;-73
2022/09/04 04:06:43;;;;;;;1.23;0.93;;;;;;;;;;5115053;28;20016;-74
2022/09/04 04:09:10;;;;;;;1.90;1.10;;;;;;;;;;5114765;28;20032;-75
2022/09/04 04:11:37;;;;;;;1.97;1.00;;;;;;;;;;5110188;28;20441;-74
2022/09/04 04:14:12;;;;;;;0.50;0.40;;;;;;;;;;5109876;28;20028;-74
2022/09/04 04:16:58;;;;;;;1.57;0.97;;;;;;;;;;5109872;28;20447;-74
2022/09/04 04:19:47;;;;;;;2.30;1.20;;;;;;;;;;5108575;28;20678;-74
2022/09/04 04:22:22;;;;;;;1.00;0.90;;;;;;;;;;5093975;28;20037;-74
2022/09/04 04:25:27;;;;;;;1.98;0.75;;;;;;;;;;5111464;28;20125;-73
2022/09/04 04:27:59;;;;;;;1.77;1.30;;;;;;;;;;5031094;28;20028;-73
2022/09/04 04:30:29;;;;;;;2.90;1.63;;;;;;;;;;5031333;28;20274;-75
2022/09/04 04:33:04;;;;;;;1.30;1.20;;;;;;;;;;5075050;28;20032;-75
2022/09/04 04:35:38;;;;;;;1.73;1.40;;;;;;;;;;5101578;27;20034;-75
2022/09/04 04:38:16;;;;;;;2.93;1.70;;;;;;;;;;5110372;28;20032;-75
2022/09/04 04:40:44;;;;;;;1.97;1.00;;;;;;;;;;5107653;28;20445;-75
2022/09/04 04:43:11;;;;;;;1.80;1.30;;;;;;;;;;5105400;28;20026;-76
2022/09/04 04:45:50;;;;;;;3.90;1.60;;;;;;;;;;5111399;28;20028;-75
2022/09/04 04:48:23;;;;;;;2.60;1.10;;;;;;;;;;5105263;28;20482;-76
2022/09/04 04:51:08;;;;;;;0.67;0.67;;;;;;;;;;5115562;28;20517;-76
2022/09/04 04:53:53;;;;;;;1.63;1.05;;;;;;;;;;5115212;28;20031;-75
2022/09/04 04:56:32;;;;;;;0.55;0.52;;;;;;;;;;5111771;28;20117;-74
2022/09/04 04:59:07;;;;;;;3.30;0.63;;;;;;;;;;5109296;28;20058;-75
2022/09/04 05:01:42;;;;;;;0.30;0.30;;;;;;;;;;5109158;28;20076;-75
2022/09/04 05:04:22;;;;;;;0.60;0.30;;;;;;;;;;5106646;28;20031;-77
2022/09/04 05:06:58;;;;;;;0.70;0.40;;;;;;;;;;5111871;28;20024;-74
2022/09/04 05:09:34;;;;;;;10.83;0.80;;;;;;;;;;5113970;28;20019;-74
2022/09/04 05:12:19;;;;;;;0.53;0.50;;;;;;;;;;5113800;28;20023;-74
2022/09/04 05:14:52;;;;;;;0.40;0.40;;;;;;;;;;5113940;28;20374;-74
2022/09/04 05:17:18;;;;;;;1.50;0.77;;;;;;;;;;5113497;28;20024;-75
2022/09/04 05:20:03;;;;;;;0.37;0.27;;;;;;;;;;5108436;28;20088;-75
2022/09/04 05:22:30;;;;;;;;;;;;;;;;;;5108511;28;20031;-75
2022/09/04 05:25:15;;;;;;;0.67;0.43;;;;;;;;;;5108512;28;20421;-75
2022/09/04 05:27:47;;;;;;;0.52;0.52;;;;;;;;;;5109694;28;20077;-75
2022/09/04 05:30:16;;;;;;;1.80;0.73;;;;;;;;;;5113778;28;20031;-75
2022/09/04 05:33:00;;;;;;;0.73;0.63;;;;;;;;;;5113392;28;20047;-75
2022/09/04 05:35:41;;;;;;;19.97;0.90;;;;;;;;;;5113503;28;20028;-75
2022/09/04 05:38:08;;;;;;;0.77;0.50;;;;;;;;;;5113876;28;20019;-75
2022/09/04 05:40:55;;;;;;;0.37;0.33;;;;;;;;;;5110788;28;20027;-75
2022/09/04 05:43:30;;;;;;;0.63;0.43;;;;;;;;;;5066604;28;20035;-75
2022/09/04 05:46:03;;;;;;;0.43;0.38;;;;;;;;;;5108039;28;20092;-75
2022/09/04 05:48:30;;;;;;;0.30;0.27;;;;;;;;;;5107622;28;20055;-75
2022/09/04 05:51:09;;;;;;;0.40;0.33;;;;;;;;;;5110954;28;20028;-75
2022/09/04 05:53:39;;;;;;;0.87;0.60;;;;;;;;;;5113368;28;20098;-75
2022/09/04 05:56:05;;;;;;;1.23;0.70;;;;;;;;;;5113420;28;20093;-75
2022/09/04 05:58:50;;;;;;;0.87;0.50;;;;;;;;;;5113103;28;20023;-75
2022/09/04 06:01:28;;;;;;;10.80;1.38;;;;;;;;;;5110696;28;20389;-75
2022/09/04 06:04:04;;;;;;;0.80;0.60;;;;;;;;;;5107878;28;20015;-75
2022/09/04 06:06:30;;;;;;;0.50;0.40;;;;;;;;;;5107898;28;20102;-75
2022/09/04 06:09:15;;;;;;;0.37;0.30;;;;;;;;;;5107749;28;20023;-75
2022/09/04 06:11:57;;;;;;;1.17;0.65;;;;;;;;;;5107398;28;20429;-75
2022/09/04 06:14:35;;;;;;;1.23;0.60;;;;;;;;;;5112995;28;20027;-75
2022/09/04 06:17:24;;;;;;;1.50;0.83;;;;;;;;;;5113074;28;20072;-75
2022/09/04 06:20:10;;;;;;;1.67;0.90;;;;;;;;;;5112823;28;20024;-75
2022/09/04 06:22:47;;;;;;;0.60;0.30;;;;;;;;;;5112828;28;20118;-75
2022/09/04 06:25:19;;;;;;;0.37;0.37;;;;;;;;;;5103670;28;20462;-75
2022/09/04 06:27:55;;;;;;;0.53;0.43;;;;;;;;;;5107675;28;20042;-75
2022/09/04 06:30:21;;;;;;;0.90;0.70;;;;;;;;;;5107388;28;20034;-75
2022/09/04 06:33:14;;;;;;;1.27;0.77;;;;;;;;;;5107149;28;20088;-75
2022/09/04 06:35:42;;;;;;;1.50;0.40;;;;;;;;;;5107390;28;20096;-75
2022/09/04 06:38:18;;;;;;;0.67;0.47;;;;;;;;;;5112922;28;20028;-75
2022/09/04 06:40:51;;;;;;;0.30;0.30;;;;;;;;;;5112739;28;20051;-75
2022/09/04 06:43:36;;;;;;;0.37;0.37;;;;;;;;;;5112653;28;20377;-75
2022/09/04 06:46:21;;;;;;;0.45;0.40;;;;;;;;;;5112683;28;20031;-75
2022/09/04 06:48:56;;;;;;;0.47;0.40;;;;;;;;;;5106785;28;20444;-75
2022/09/04 06:51:23;;;;;;;0.85;0.40;;;;;;;;;;5106812;28;20088;-76
2022/09/04 06:54:09;;;;;;;0.33;0.33;;;;;;;;;;5107247;28;20031;-75
2022/09/04 06:56:41;;;;;;;0.50;0.40;;;;;;;;;;5107687;28;20020;-75
2022/09/04 06:59:17;;;;;;;0.20;0.20;;;;;;;;;;5112169;28;20372;-75
2022/09/04 07:01:46;;;;;;;0.60;0.30;;;;;;;;;;5112296;28;20028;-75
2022/09/04 07:04:13;;;;;;;0.37;0.30;;;;;;;;;;5112495;28;20032;-75
2022/09/04 07:06:55;;;;;;;0.20;0.20;;;;;;;;;;5112525;28;20027;-75
2022/09/04 07:09:51;;;;;;;3.53;0.53;;;;;;;;;;5110590;28;20023;-75
2022/09/04 07:12:17;;;;;;;0.23;0.23;;;;;;;;;;5089146;28;20114;-75
2022/09/04 07:14:48;;;;;;;1.13;0.60;;;;;;;;;;5106825;28;20114;-75
2022/09/04 07:17:23;;;;;;;2.37;0.87;;;;;;;;;;5106807;28;20030;-75
2022/09/04 07:20:08;;;;;;;0.27;0.27;;;;;;;;;;5109389;28;20100;-75
2022/09/04 07:22:53;;;;;;;0.45;0.40;;;;;;;;;;5112111;28;20109;-75
2022/09/04 07:25:32;;;;;;;0.35;0.25;;;;;;;;;;5092053;28;20036;-75
2022/09/04 07:28:02;;;;;;;1.07;0.40;;;;;;;;;;5091925;28;20020;-75
2022/09/04 07:30:32;;;;;;;1.30;0.50;;;;;;;;;;5091967;28;20020;-75
2022/09/04 07:33:15;;;;;;;0.47;0.30;;;;;;;;;;5088359;28;20099;-75
2022/09/04 07:35:42;;;;;;;0.03;0.03;;;;;;;;;;5099712;28;20119;-75
2022/09/04 07:38:11;;;;;;;0.60;0.20;;;;;;;;;;5110308;28;20031;-75
2022/09/04 07:40:42;;;;;;;0.43;0.40;;;;;;;;;;5110313;28;20073;-75
2022/09/04 07:43:16;;;;;;;1.63;0.80;;;;;;;;;;5115659;28;20098;-75
2022/09/04 07:45:52;;;;;;;0.95;0.65;;;;;;;;;;5116124;28;20366;-75
2022/09/04 07:48:37;;;;;;;0.43;0.40;;;;;;;;;;5115675;28;20501;-75
2022/09/04 07:51:12;;;;;;;0.65;0.45;;;;;;;;;;5116158;28;20468;-75
2022/09/04 07:53:41;;;;;;;0.55;0.38;;;;;;;;;;5114535;28;20102;-75
2022/09/04 07:56:26;;;;;;;0.10;0.10;;;;;;;;;;5110212;28;20030;-75
2022/09/04 07:58:53;;;;;;;1.40;0.40;;;;;;;;;;5109759;28;20031;-75
2022/09/04 08:01:42;;;;;;;19.33;0.50;;;;;;;;;;5110222;28;20023;-75
2022/09/04 08:04:09;;;;;;;0.73;0.40;;;;;;;;;;5112234;28;20020;-75
2022/09/04 08:06:38;;;;;;;3.53;0.60;;;;;;;;;;5115662;28;20389;-75
2022/09/04 08:09:05;;;;;;;0.10;0.10;;;;;;;;;;5115548;28;20015;-76
2022/09/04 08:11:49;;;;;;;3.50;0.47;;;;;;;;;;5115007;28;20579;-76
2022/09/04 08:14:41;;;;;;;0.30;0.20;;;;;;;;;;5115281;28;20084;-75
2022/09/04 08:17:19;;;;;;;21.23;0.60;;;;;;;;;;5111667;28;20030;-77
2022/09/04 08:20:09;;;;;;;0.37;0.37;;;;;;;;;;5109889;28;20031;-76
2022/09/04 08:22:39;;;;;;;0.80;0.37;;;;;;;;;;5109315;28;20031;-76
2022/09/04 08:25:21;;;;;;;1.23;0.53;;;;;;;;;;5109249;28;20020;-76
2022/09/04 08:27:50;;;;;;;2.40;0.20;;;;;;;;;;5114876;28;20024;-76
2022/09/04 08:30:20;;;;;;;0.13;0.10;;;;;;;;;;5115080;28;20051;-75
2022/09/04 08:32:52;;;;;;;0.27;0.20;;;;;;;;;;5115135;28;20080;-76
2022/09/04 08:35:45;;;;;;;0.07;0.07;;;;;;;;;;5114834;28;20965;-76
2022/09/04 08:38:20;;;;;;;0.73;0.30;;;;;;;;;;5082506;28;20035;-76
2022/09/04 08:40:49;;;;;;;0.22;0.20;;;;;;;;;;5109216;28;20027;-76
2022/09/04 08:43:19;;;;;;;0.30;0.30;;;;;;;;;;5108750;28;20031;-76
2022/09/04 08:46:04;;;;;;;0.00;0.00;;;;;;;;;;5109274;28;20570;-76
2022/09/04 08:48:49;;;;;;;0.43;0.35;;;;;;;;;;5110735;28;20028;-76
2022/09/04 08:51:34;;;;;;;0.13;0.10;;;;;;;;;;5114146;28;20028;-76
2022/09/04 08:54:19;;;;;;;0.05;0.03;;;;;;;;;;5114287;28;20149;-76
2022/09/04 08:57:06;;;;;;;0.55;0.30;;;;;;;;;;5114765;28;20374;-76
2022/09/04 08:59:56;;;;;;;0.30;0.27;;;;;;;;;;5114163;28;20379;-75
2022/09/04 09:02:38;;;;;;;0.27;0.23;;;;;;;;;;5108908;28;20102;-76
2022/09/04 09:05:04;;;;;;;1.27;0.20;;;;;;;;;;5088471;28;20036;-76
2022/09/04 09:07:49;;;;;;;0.10;0.10;;;;;;;;;;5088633;28;20051;-76
2022/09/04 09:10:34;;;;;;;0.43;0.28;;;;;;;;;;5088795;28;20105;-76
2022/09/04 09:13:13;;;;;;;0.15;0.10;;;;;;;;;;5093940;28;20020;-76
2022/09/04 09:15:49;;;;;;;0.00;0.00;;;;;;;;;;5100453;28;20034;-76
2022/09/04 09:18:38;;;;;;;0.27;0.17;;;;;;;;;;5114118;28;20019;-76
2022/09/04 09:21:26;;;;;;;1.40;0.43;;;;;;;;;;5114111;28;20027;-76
2022/09/04 09:23:52;;;;;;;0.33;0.23;;;;;;;;;;5110142;28;20390;-75
2022/09/04 09:26:37;;;;;;;0.13;0.10;;;;;;;;;;5108580;28;20012;-75
2022/09/04 09:29:11;;;;;;;0.65;0.30;;;;;;;;;;5108450;28;20111;-75
2022/09/04 09:31:43;;;;;;;0.43;0.13;;;;;;;;;;5108345;28;20030;-75
2022/09/04 09:34:10;;;;;;;0.20;0.20;;;;;;;;;;5112700;28;20122;-75
2022/09/04 09:36:37;;;;;;;0.30;0.30;;;;;;;;;;5113840;28;20027;-75
2022/09/04 09:39:25;;;;;;;0.30;0.30;;;;;;;;;;5113100;28;20020;-75
2022/09/04 09:41:55;;;;;;;0.43;0.23;;;;;;;;;;5113838;28;20532;-75
2022/09/04 09:44:21;;;;;;;0.40;0.40;;;;;;;;;;5113737;28;20028;-75
2022/09/04 09:47:03;;;;;;;1.17;0.50;;;;;;;;;;5108231;28;20023;-75
2022/09/04 09:49:49;;;;;;;0.17;0.13;;;;;;;;;;5108154;28;20059;-76
2022/09/04 09:52:34;;;;;;;0.30;0.20;;;;;;;;;;5107843;28;20074;-75
2022/09/04 09:55:01;;;;;;;0.08;0.08;;;;;;;;;;5107905;28;20071;-75
2022/09/04 09:57:46;;;;;;;0.30;0.30;;;;;;;;;;5113294;28;20016;-74
2022/09/04 10:00:13;;;;;;;0.47;0.38;;;;;;;;;;5113483;28;20031;-75
2022/09/04 10:02:58;;;;;;;1.40;1.03;;;;;;;;;;5113090;28;20016;-74
2022/09/04 10:05:28;;;;;;;0.30;0.30;;;;;;;;;;5113275;28;20106;-75
2022/09/04 10:08:12;;;;;;;0.20;0.10;;;;;;;;;;5110369;28;20047;-75
2022/09/04 10:10:50;;;;;;;0.40;0.37;;;;;;;;;;5107669;28;20024;-75
2022/09/04 10:13:35;;;;;;;0.20;0.20;;;;;;;;;;5107476;28;20426;-75
2022/09/04 10:16:11;;;;;;;0.82;0.43;;;;;;;;;;5107221;28;20385;-76
2022/09/04 10:18:49;;;;;;;0.40;0.40;;;;;;;;;;5111736;28;20530;-76
2022/09/04 10:21:19;;;;;;;0.30;0.30;;;;;;;;;;5112843;28;20068;-76
2022/09/04 10:23:46;;;;;;;0.60;0.50;;;;;;;;;;5113193;28;20166;-76
2022/09/04 10:26:15;;;;;;;0.73;0.53;;;;;;;;;;5112916;28;20084;-76
2022/09/04 10:28:48;;;;;;;1.50;0.50;;;;;;;;;;5112462;28;20015;-76
2022/09/04 10:31:18;;;;;;;0.67;0.43;;;;;;;;;;5107568;28;20105;-76
2022/09/04 10:33:57;;;;;;;2.27;0.87;;;;;;;;;;5106788;28;20103;-76
2022/09/04 10:36:26;;;;;;;0.90;0.60;;;;;;;;;;5107277;28;20478;-76
2022/09/04 10:41:53;;;;;;;0.10;0.10;;;;;;;;;;5112919;28;20046;-76
2022/09/04 10:44:32;;;;;;;0.40;0.40;;;;;;;;;;5112615;28;20064;-76
2022/09/04 10:46:58;;;;;;;0.30;0.30;;;;;;;;;;5112644;28;20020;-77
2022/09/04 10:49:36;;;;;;;0.70;0.40;;;;;;;;;;5112625;28;20036;-77
2022/09/04 10:52:21;;;;;;;0.67;0.50;;;;;;;;;;5110803;28;20032;-78
2022/09/04 10:55:12;;;;;;;0.65;0.50;;;;;;;;;;5106888;28;20031;-77
2022/09/04 10:57:47;;;;;;;1.40;0.43;;;;;;;;;;5106609;28;20027;-78
2022/09/04 11:00:27;;;;;;;0.35;0.35;;;;;;;;;;5107117;28;20024;-78
2022/09/04 11:03:12;;;;;;;0.80;0.80;;;;;;;;;;5110401;28;20020;-78
2022/09/04 11:05:45;;;;;;;0.85;0.75;;;;;;;;;;5111901;28;20533;-77
2022/09/04 11:08:15;;;;;;;0.47;0.43;;;;;;;;;;5116166;28;20475;-77
2022/09/04 11:11:00;;;;;;;0.47;0.30;;;;;;;;;;5115669;28;20419;-77
2022/09/04 11:13:33;;;;;;;0.52;0.22;;;;;;;;;;5116766;28;20067;-76
2022/09/04 11:16:12;;;;;;;3.43;0.57;;;;;;;;;;5110934;28;20119;-75
2022/09/04 11:18:52;;;;;;;0.13;0.10;;;;;;;;;;5110588;28;20066;-75
2022/09/04 11:21:41;;;;;;;8.33;0.67;;;;;;;;;;5110663;28;20466;-75
2022/09/04 11:24:24;;;;;;;0.00;0.00;;;;;;;;;;5073786;28;20024;-75
2022/09/04 11:26:53;;;;;;;0.47;0.20;;;;;;;;;;5116579;28;20046;-75
2022/09/04 11:29:40;;;;;;;0.00;0.00;;;;;;;;;;5116112;28;21242;-76
2022/09/04 11:32:13;;;;;;;0.10;0.00;;;;;;;;;;5116302;28;20111;-76
2022/09/04 11:34:49;;;;;;;0.00;0.00;;;;;;;;;;5116077;28;20435;-75
2022/09/04 11:37:22;;;;;;;2.90;0.27;;;;;;;;;;5112710;28;20073;-76
2022/09/04 11:40:07;;;;;;;0.00;0.00;;;;;;;;;;5110359;28;20556;-77
2022/09/04 11:43:07;;;;;;;0.45;0.45;;;;;;;;;;5110088;28;20088;-75
2022/09/04 11:45:47;;;;;;;5.53;0.77;;;;;;;;;;5056390;28;20032;-77
2022/09/04 11:48:16;;;;;;;0.00;0.00;;;;;;;;;;5095565;28;20031;-76
2022/09/04 11:50:46;;;;;;;0.00;0.00;;;;;;;;;;5095761;28;20024;-76
2022/09/04 11:53:28;;;;;;;0.20;0.10;;;;;;;;;;5095503;28;20033;-76
2022/09/04 11:56:05;;;;;;;0.00;0.00;;;;;;;;;;5113658;28;20088;-76
2022/09/04 11:58:48;;;;;;;0.00;0.00;;;;;;;;;;5114710;28;20043;-76
2022/09/04 12:01:26;;;;;;;0.00;0.00;;;;;;;;;;5110058;28;20546;-75
2022/09/04 12:03:56;;;;;;;0.00;0.00;;;;;;;;;;5110145;28;20024;-75
2022/09/04 12:06:33;;;;;;;0.03;0.03;;;;;;;;;;5109852;28;20386;-75
2022/09/04 12:09:18;;;;;;;0.60;0.37;;;;;;;;;;5112167;28;20024;-74
2022/09/04 12:11:48;;;;;;;0.32;0.10;;;;;;;;;;5115273;28;20031;-74
2022/09/04 12:14:21;;;;;;;0.30;0.20;;;;;;;;;;5115307;28;20032;-74
2022/09/04 12:17:07;;;;;;;0.30;0.20;;;;;;;;;;5115590;28;20030;-74
2022/09/04 12:19:52;;;;;;;0.20;0.00;;;;;;;;;;5114290;28;20043;-75
2022/09/04 12:22:37;;;;;;;0.20;0.08;;;;;;;;;;5110636;28;20031;-75
2022/09/04 12:25:09;;;;;;;0.00;0.00;;;;;;;;;;5109831;28;20047;-75
2022/09/04 12:27:54;;;;;;;0.20;0.20;;;;;;;;;;5109294;28;20046;-75
2022/09/04 12:30:24;;;;;;;2.80;0.28;;;;;;;;;;5109078;28;20048;-75
2022/09/04 12:32:51;;;;;;;0.00;0.00;;;;;;;;;;5115169;28;20069;-75
2022/09/04 12:35:28;;;;;;;0.30;0.20;;;;;;;;;;5114921;28;20562;-75
2022/09/04 12:38:07;;;;;;;0.00;0.00;;;;;;;;;;5114620;28;20023;-75
2022/09/04 12:40:47;;;;;;;0.10;0.00;;;;;;;;;;5114815;28;20032;-75
2022/09/04 12:43:25;;;;;;;0.10;0.10;;;;;;;;;;5113160;28;20129;-75
2022/09/04 12:45:54;;;;;;;0.10;0.00;;;;;;;;;;5108938;28;20375;-75
2022/09/04 12:48:25;;;;;;;0.20;0.13;;;;;;;;;;5109156;28;20804;-75
2022/09/04 12:50:54;;;;;;;0.17;0.10;;;;;;;;;;5109291;28;20118;-75
2022/09/04 12:53:48;;;;;;;0.00;0.00;;;;;;;;;;5110218;28;20024;-75
2022/09/04 12:56:28;;;;;;;0.00;0.00;;;;;;;;;;5114815;28;20035;-75
2022/09/04 12:59:08;;;;;;;0.00;0.00;;;;;;;;;;5114627;28;20477;-75
2022/09/04 13:01:35;;;;;;;0.20;0.10;;;;;;;;;;5114663;28;20024;-75
2022/09/04 13:04:11;;;;;;;0.00;0.00;;;;;;;;;;5113720;28;20090;-75
2022/09/04 13:06:57;;;;;;;3.00;0.27;;;;;;;;;;5110160;28;20073;-75
2022/09/04 13:09:30;;;;;;;0.23;0.20;;;;;;;;;;5108852;28;20069;-75
2022/09/04 13:12:01;;;;;;;0.30;0.10;;;;;;;;;;5108904;28;20095;-75
2022/09/04 13:14:46;;;;;;;0.47;0.40;;;;;;;;;;5108599;28;20039;-75
2022/09/04 13:17:25;;;;;;;1.25;0.30;;;;;;;;;;5113997;28;20520;-75
2022/09/04 13:20:11;;;;;;;0.70;0.40;;;;;;;;;;5114339;28;20044;-75
2022/09/04 13:22:41;;;;;;;0.30;0.20;;;;;;;;;;5113992;28;20032;-75
2022/09/04 13:25:26;;;;;;;5.60;0.20;;;;;;;;;;5114275;28;20027;-75
2022/09/04 13:27:59;;;;;;;0.30;0.30;;;;;;;;;;5111814;28;20062;-75
2022/09/04 13:30:26;;;;;;;0.10;0.10;;;;;;;;;;5108449;28;20036;-75
2022/09/04 13:33:05;;;;;;;0.10;0.10;;;;;;;;;;5108338;28;20027;-75
2022/09/04 13:35:50;;;;;;;0.93;0.57;;;;;;;;;;5108358;28;20036;-75
2022/09/04 13:38:36;;;;;;;0.65;0.50;;;;;;;;;;5109888;28;20023;-75
2022/09/04 13:41:03;;;;;;;;;;;;;;;;;;5114222;28;20019;-75
2022/09/04 13:43:39;;;;;;;0.10;0.10;;;;;;;;;;5113791;28;20336;-75
2022/09/04 13:46:16;;;;;;;0.43;0.37;;;;;;;;;;5113635;28;20019;-75
2022/09/04 13:48:45;;;;;;;0.40;0.40;;;;;;;;;;5113567;28;20020;-75
2022/09/04 13:51:24;;;;;;;0.10;0.10;;;;;;;;;;5109128;28;20076;-75
2022/09/04 13:54:02;;;;;;;0.10;0.10;;;;;;;;;;5107980;28;20059;-75
2022/09/04 13:56:48;;;;;;;0.43;0.40;;;;;;;;;;5107425;28;20470;-75
2022/09/04 13:59:17;;;;;;;2.63;0.30;;;;;;;;;;5107787;28;20024;-75
2022/09/04 14:01:46;;;;;;;1.20;0.60;;;;;;;;;;5112932;28;20106;-75
2022/09/04 14:04:33;;;;;;;0.37;0.27;;;;;;;;;;5113323;28;20055;-75
2022/09/04 14:07:05;;;;;;;0.30;0.30;;;;;;;;;;5113214;28;20034;-75
2022/09/04 14:09:35;;;;;;;0.33;0.20;;;;;;;;;;5112062;28;20379;-75
2022/09/04 14:12:07;;;;;;;0.20;0.20;;;;;;;;;;5112208;28;20096;-73
2022/09/04 14:14:39;;;;;;;2.20;0.93;;;;;;;;;;5106794;28;20417;-74
2022/09/04 14:17:06;;;;;;;0.73;0.43;;;;;;;;;;5107631;28;20050;-74
2022/09/04 14:20:11;;;;;;;0.20;0.20;;;;;;;;;;5107779;28;20381;-74
2022/09/04 14:22:56;;;;;;;0.00;0.00;;;;;;;;;;5026516;28;20037;-76
2022/09/04 14:25:29;;;;;;;0.47;0.38;;;;;;;;;;5030201;28;20080;-73
2022/09/04 14:28:06;;;;;;;0.40;0.40;;;;;;;;;;5083924;28;20044;-74
2022/09/04 14:30:35;;;;;;;0.20;0.20;;;;;;;;;;5112722;28;20077;-74
2022/09/04 14:33:08;;;;;;;0.77;0.53;;;;;;;;;;5112745;28;20073;-74
2022/09/04 14:35:55;;;;;;;1.33;0.47;;;;;;;;;;5108761;28;20042;-74
2022/09/04 14:38:40;;;;;;;0.23;0.17;;;;;;;;;;5107004;28;20024;-74
2022/09/04 14:41:15;;;;;;;1.15;0.70;;;;;;;;;;5106879;28;20753;-74
2022/09/04 14:44:02;;;;;;;0.35;0.28;;;;;;;;;;5107333;28;20481;-73
2022/09/04 14:46:35;;;;;;;1.23;0.60;;;;;;;;;;5112675;28;20023;-73
2022/09/04 14:49:05;;;;;;;2.63;0.50;;;;;;;;;;5092773;28;20529;-75
2022/09/04 14:51:42;;;;;;;0.30;0.30;;;;;;;;;;5092460;28;20020;-74
2022/09/04 14:54:15;;;;;;;1.30;0.80;;;;;;;;;;5092292;28;20020;-73
2022/09/04 14:56:48;;;;;;;0.30;0.30;;;;;;;;;;5091322;28;20028;-74
2022/09/04 14:59:20;;;;;;;1.70;0.90;;;;;;;;;;5105897;28;21377;-74
2022/09/04 15:02:05;;;;;;;1.57;0.83;;;;;;;;;;5105612;28;20466;-75
2022/09/04 15:05:11;;;;;;;0.68;0.47;;;;;;;;;;5107082;28;20501;-73
2022/09/04 15:07:43;;;;;;;1.33;0.60;;;;;;;;;;5026402;28;20116;-74
2022/09/04 15:10:16;;;;;;;0.40;0.30;;;;;;;;;;5029696;28;20035;-75
2022/09/04 15:12:49;;;;;;;0.77;0.50;;;;;;;;;;5075210;28;20035;-74
2022/09/04 15:15:24;;;;;;;0.23;0.20;;;;;;;;;;5111498;28;20035;-74
2022/09/04 15:17:54;;;;;;;0.40;0.30;;;;;;;;;;5111424;28;20481;-74
2022/09/04 15:20:22;;;;;;;2.37;0.40;;;;;;;;;;5098698;28;20020;-74
2022/09/04 15:23:05;;;;;;;0.20;0.20;;;;;;;;;;5106580;28;20084;-74
2022/09/04 15:25:39;;;;;;;0.60;0.20;;;;;;;;;;5105439;28;20028;-75
2022/09/04 15:28:15;;;;;;;0.27;0.27;;;;;;;;;;5105680;28;20028;-74
2022/09/04 15:30:45;;;;;;;0.90;0.60;;;;;;;;;;5110961;28;20058;-75
2022/09/04 15:33:17;;;;;;;0.90;0.40;;;;;;;;;;5110730;28;20023;-74
2022/09/04 15:35:45;;;;;;;0.27;0.10;;;;;;;;;;5107558;28;20369;-75
2022/09/04 15:38:24;;;;;;;1.13;0.60;;;;;;;;;;5111354;28;20089;-75
2022/09/04 15:40:54;;;;;;;0.73;0.50;;;;;;;;;;5110816;28;20132;-75
2022/09/04 15:43:31;;;;;;;0.30;0.27;;;;;;;;;;5105918;28;20023;-75